Time,TemperatureF,DewpointF,PressureIn,WindDirection,WindDirectionDegrees,WindSpeedMPH,WindSpeedGustMPH,Humidity,HourlyPrecipIn,Conditions,Clouds,dailyrainin,SoftwareType,DateUTC
2013-01-23 00:04:00,13.0,7.7,30.44,SE,143,0.0,0.0,79,0.00,,---,0.00,VWS V12.07,2013-01-23 06:04:00,
2013-01-23 01:23:00,11.9,8.0,30.44,SSE,153,0.0,0.0,84,0.00,,---,0.00,VWS V12.07,2013-01-23 07:23:00,
2013-01-23 01:33:00,11.8,7.9,30.44,SSE,155,0.0,0.0,84,0.00,,---,0.00,VWS V12.07,2013-01-23 07:33:00,
2013-01-23 01:43:00,11.8,7.9,30.44,SSE,162,0.0,0.0,84,0.00,,---,0.00,VWS V12.07,2013-01-23 07:43:00,
2013-01-23 01:53:00,11.6,8.0,30.44,SSE,161,0.0,0.0,85,0.00,,---,0.00,VWS V12.07,2013-01-23 07:53:00,
2013-01-23 02:03:00,11.8,8.2,30.43,SE,142,0.0,0.0,85,0.00,,---,0.00,VWS V12.07,2013-01-23 08:03:00,
2013-01-23 02:13:00,11.8,8.2,30.44,SE,132,0.0,0.0,85,0.00,,---,0.00,VWS V12.07,2013-01-23 08:13:00,
2013-01-23 02:23:00,11.7,8.1,30.43,SE,141,0.0,0.0,85,0.00,,---,0.00,VWS V12.07,2013-01-23 08:23:00,
2013-01-23 02:33:00,11.7,8.1,30.43,SE,132,0.0,0.0,85,0.00,,---,0.00,VWS V12.07,2013-01-23 08:33:00,
2013-01-23 02:43:00,11.7,8.1,30.42,ESE,117,0.0,0.0,85,0.00,,---,0.00,VWS V12.07,2013-01-23 08:43:00,
2013-01-23 02:53:00,11.5,7.9,30.42,ESE,117,0.0,0.0,85,0.00,,---,0.00,VWS V12.07,2013-01-23 08:53:00,
2013-01-23 03:13:00,11.3,7.9,30.40,SE,141,0.0,0.0,86,0.00,,---,0.00,VWS V12.07,2013-01-23 09:13:00,
2013-01-23 03:23:00,11.3,7.9,30.40,SE,134,0.0,0.0,86,0.00,,---,0.00,VWS V12.07,2013-01-23 09:23:00,
2013-01-23 03:43:00,10.9,7.5,30.40,SE,124,0.0,0.0,86,0.00,,---,0.00,VWS V12.07,2013-01-23 09:43:00,
2013-01-23 03:53:00,10.7,7.6,30.40,SE,124,0.0,0.0,87,0.00,,---,0.00,VWS V12.07,2013-01-23 09:53:00,
2013-01-23 04:23:00,10.9,8.1,30.40,ESE,109,0.0,0.0,88,0.00,,---,0.00,VWS V12.07,2013-01-23 10:23:00,
2013-01-23 04:33:00,11.0,8.1,30.39,ESE,108,0.0,0.0,88,0.00,,---,0.00,VWS V12.07,2013-01-23 10:33:00,
2013-01-23 04:43:00,11.2,8.4,30.39,ESE,117,0.0,0.0,88,0.00,,---,0.00,VWS V12.07,2013-01-23 10:43:00,
2013-01-23 04:53:00,11.4,8.3,30.39,ESE,108,0.0,0.0,87,0.00,,---,0.00,VWS V12.07,2013-01-23 10:53:00,
2013-01-23 05:13:00,11.3,8.2,30.39,SE,129,0.0,0.0,87,0.00,,---,0.00,VWS V12.07,2013-01-23 11:13:00,
2013-01-23 05:23:00,11.4,8.3,30.38,ESE,120,0.0,0.0,87,0.00,,---,0.00,VWS V12.07,2013-01-23 11:23:00,
2013-01-23 05:33:00,11.1,8.0,30.38,ESE,123,0.0,0.0,87,0.00,,---,0.00,VWS V12.07,2013-01-23 11:33:00,
2013-01-23 05:43:00,11.1,8.0,30.39,ESE,119,0.0,0.0,87,0.00,,---,0.00,VWS V12.07,2013-01-23 11:43:00,
2013-01-23 05:53:00,11.0,8.1,30.39,SE,131,0.0,0.0,88,0.00,,---,0.00,VWS V12.07,2013-01-23 11:53:00,
2013-01-23 06:13:00,11.4,8.3,30.39,SE,138,0.0,2.0,87,0.00,,---,0.00,VWS V12.07,2013-01-23 12:13:00,
2013-01-23 06:43:00,11.5,8.6,30.39,SE,127,2.0,2.0,88,0.00,,---,0.00,VWS V12.07,2013-01-23 12:43:00,
2013-01-23 06:53:00,11.7,8.8,30.38,SE,128,2.0,4.0,88,0.00,,---,0.00,VWS V12.07,2013-01-23 12:53:00,
2013-01-23 07:23:00,11.6,8.5,30.36,SE,144,1.0,3.0,87,0.00,,---,0.00,VWS V12.07,2013-01-23 13:23:00,
2013-01-23 07:53:00,12.8,9.9,30.35,SE,139,1.0,2.0,88,0.00,,---,0.00,VWS V12.07,2013-01-23 13:53:00,
2013-01-23 09:43:00,20.9,16.0,30.34,SW,222,1.0,5.0,81,0.00,,---,0.00,VWS V12.07,2013-01-23 15:43:00,
2013-01-23 10:03:00,23.3,17.2,30.33,WSW,256,0.0,2.0,77,0.00,,---,0.00,VWS V12.07,2013-01-23 16:03:00,
2013-01-23 10:33:00,25.2,17.8,30.34,SSW,201,3.0,4.0,73,0.00,,---,0.00,VWS V12.07,2013-01-23 16:33:00,
2013-01-23 11:03:00,28.2,19.4,30.32,West,263,1.0,3.0,69,0.00,,---,0.00,VWS V12.07,2013-01-23 17:03:00,
2013-01-23 12:53:00,36.4,21.4,30.26,West,262,2.0,7.0,54,0.00,,---,0.00,VWS V12.07,2013-01-23 18:53:00,
2013-01-23 13:04:00,36.8,21.3,30.25,WNW,297,5.0,14.0,53,0.00,,---,0.00,VWS V12.07,2013-01-23 19:04:00,
2013-01-23 15:54:00,40.2,23.5,30.24,WNW,298,8.0,16.0,51,0.00,,---,0.00,VWS V12.07,2013-01-23 21:54:00,
2013-01-23 16:25:00,40.0,23.4,30.25,WNW,297,6.0,13.0,51,0.00,,---,0.00,VWS V12.07,2013-01-23 22:25:00,
2013-01-23 16:44:00,39.7,23.5,30.25,NW,318,4.0,11.0,52,0.00,,---,0.00,VWS V12.07,2013-01-23 22:44:00,
2013-01-23 17:15:00,38.2,22.6,30.26,NNW,338,1.0,8.0,53,0.00,,---,0.00,VWS V12.07,2013-01-23 23:15:00,
2013-01-23 17:35:00,36.7,22.1,30.27,NW,321,1.0,6.0,55,0.00,,---,0.00,VWS V12.07,2013-01-23 23:35:00,
2013-01-23 17:54:00,35.7,22.0,30.28,NNW,333,2.0,12.0,57,0.00,,---,0.00,VWS V12.07,2013-01-23 23:54:00,
2013-01-23 18:45:00,33.1,21.1,30.31,NNE,30,2.0,7.0,61,0.00,,---,0.00,VWS V12.07,2013-01-24 00:45:00,
2013-01-23 19:15:00,31.9,20.8,30.32,NW,314,3.0,7.0,63,0.00,,---,0.00,VWS V12.07,2013-01-24 01:15:00,
2013-01-23 19:35:00,30.9,19.4,30.34,NW,326,3.0,10.0,62,0.00,,---,0.00,VWS V12.07,2013-01-24 01:35:00,
2013-01-23 19:55:00,30.0,18.2,30.34,NE,46,8.0,12.0,61,0.00,,---,0.00,VWS V12.07,2013-01-24 01:55:00,
2013-01-23 20:05:00,29.6,17.8,30.35,NE,40,2.0,8.0,61,0.00,,---,0.00,VWS V12.07,2013-01-24 02:05:00,
2013-01-23 20:16:00,29.1,17.7,30.35,NW,326,5.0,10.0,62,0.00,,---,0.00,VWS V12.07,2013-01-24 02:16:00,
2013-01-23 21:16:00,27.0,17.9,30.38,NNW,339,5.0,12.0,68,0.00,,---,0.00,VWS V12.07,2013-01-24 03:16:00,
2013-01-23 21:36:00,26.3,17.5,30.40,ENE,65,5.0,11.0,69,0.00,,---,0.00,VWS V12.07,2013-01-24 03:36:00,
2013-01-23 21:46:00,25.9,17.5,30.41,NW,305,4.0,11.0,70,0.00,,---,0.00,VWS V12.07,2013-01-24 03:46:00,
2013-01-23 22:37:00,24.4,14.0,30.43,NW,316,5.0,11.0,64,0.00,,---,0.00,VWS V12.07,2013-01-24 04:37:00,
2013-01-23 23:07:00,23.2,13.2,30.45,North,357,9.0,10.0,65,0.00,,---,0.00,VWS V12.07,2013-01-24 05:07:00,
2013-01-23 23:24:00,22.4,10.6,30.46,NNE,13,5.0,15.0,60,0.00,,---,0.00,VWS V12.07,2013-01-24 05:24:00,
2013-01-23 23:45:00,21.5,10.1,30.49,NW,305,2.0,11.0,61,0.00,,---,0.00,VWS V12.07,2013-01-24 05:45:00,